createdAt,value
2022-12-01T00:02:55.728Z,0.75
2022-12-01T00:07:58.200Z,0.77
2022-12-01T00:13:03.572Z,0.78
2022-12-01T00:18:05.963Z,0.78
2022-12-01T00:23:07.706Z,0.70
2022-12-01T00:28:11.204Z,0.78
2022-12-01T00:33:13.618Z,0.72
2022-12-01T00:38:15.864Z,0.68
2022-12-01T00:43:19.013Z,0.77
2022-12-01T00:48:21.128Z,0.75
2022-12-01T00:53:23.484Z,0.71
2022-12-01T00:58:26.919Z,0.68
2022-12-01T01:03:30.333Z,0.71
2022-12-01T01:08:32.416Z,0.75
2022-12-01T01:13:36.632Z,0.77
2022-12-01T01:18:38.773Z,0.77
2022-12-01T01:23:41.011Z,0.84
2022-12-01T01:28:44.717Z,0.81
2022-12-01T01:33:47.273Z,0.75
2022-12-01T01:38:49.605Z,0.78
2022-12-01T01:43:54.974Z,0.80
2022-12-01T01:48:59.486Z,0.74
2022-12-01T01:54:05.144Z,0.79
2022-12-01T01:59:08.535Z,0.76
2022-12-01T02:04:10.260Z,0.75
2022-12-01T02:09:12.483Z,0.72
2022-12-01T02:14:31.545Z,0.72
2022-12-01T02:20:20.566Z,0.72
2022-12-01T02:25:35.583Z,0.70
2022-12-01T02:30:44.690Z,0.71
2022-12-01T02:35:52.735Z,0.74
2022-12-01T02:41:01.055Z,0.64
2022-12-01T02:46:10.626Z,0.74
2022-12-01T02:51:16.792Z,0.71
2022-12-01T02:56:22.524Z,0.75
2022-12-01T03:01:52.160Z,0.80
2022-12-01T03:07:04.114Z,0.67
2022-12-01T03:12:15.274Z,0.60
2022-12-01T03:17:24.559Z,0.56
2022-12-01T03:22:31.208Z,0.51
2022-12-01T03:27:37.804Z,0.46
2022-12-01T03:32:46.495Z,0.44
2022-12-01T03:37:54.331Z,0.42
2022-12-01T03:43:00.134Z,0.36
2022-12-01T03:48:03.894Z,0.49
2022-12-01T03:53:10.006Z,0.47
2022-12-01T03:58:15.365Z,0.40
2022-12-01T04:03:20.807Z,0.38
2022-12-01T04:08:22.593Z,0.31
2022-12-01T04:13:24.692Z,0.29
2022-12-01T04:18:27.886Z,0.31
2022-12-01T04:23:29.586Z,0.31
2022-12-01T04:28:31.811Z,0.19
2022-12-01T04:33:35.308Z,0.23
2022-12-01T04:38:37.631Z,0.19
2022-12-01T04:43:40.204Z,0.14
2022-12-01T04:48:43.439Z,0.13
2022-12-01T04:53:45.702Z,0.18
2022-12-01T04:58:47.906Z,0.10
2022-12-01T05:03:51.488Z,0.17
2022-12-01T05:08:56.429Z,0.26
2022-12-01T05:13:59.664Z,0.24
2022-12-01T05:19:04.857Z,0.21
2022-12-01T05:24:07.814Z,0.09
2022-12-01T05:29:10.740Z,0.18
2022-12-01T05:34:14.412Z,0.17
2022-12-01T05:39:16.461Z,0.18
2022-12-01T05:44:18.704Z,0.17
2022-12-01T05:49:22.767Z,0.14
2022-12-01T05:54:25.403Z,0.19
2022-12-01T05:59:28.435Z,0.23
2022-12-01T06:04:32.284Z,0.13
2022-12-01T06:09:34.639Z,0.09
2022-12-01T06:14:36.786Z,0.10
2022-12-01T06:19:40.439Z,0.08
2022-12-01T06:24:42.187Z,0.06
2022-12-01T06:29:44.389Z,0.21
2022-12-01T06:34:48.197Z,0.26
2022-12-01T06:39:53.323Z,0.30
2022-12-01T06:44:55.530Z,0.21
2022-12-01T06:49:59.196Z,0.18
2022-12-01T06:55:01.429Z,0.11
2022-12-01T07:00:04.779Z,0.15
2022-12-01T07:05:09.179Z,0.16
2022-12-01T07:10:12.519Z,0.15
2022-12-01T07:15:14.348Z,0.14
2022-12-01T07:20:17.676Z,0.21
2022-12-01T07:25:19.438Z,0.22
2022-12-01T07:30:26.860Z,0.26
2022-12-01T07:35:32.171Z,0.34
2022-12-01T07:40:34.601Z,0.19
2022-12-01T07:45:36.751Z,0.37
2022-12-01T07:50:40.497Z,0.40
2022-12-01T07:55:48.522Z,0.40
2022-12-01T08:00:50.672Z,0.41
2022-12-01T08:06:01.354Z,0.45
2022-12-01T08:11:05.750Z,0.48
2022-12-01T08:16:09.688Z,0.52
2022-12-01T08:21:15.923Z,0.55
2022-12-01T08:26:19.623Z,0.62
2022-12-01T08:31:28.576Z,0.60
2022-12-01T08:36:32.123Z,0.55
2022-12-01T08:41:34.966Z,0.64
2022-12-01T08:46:37.725Z,0.82
2022-12-01T08:51:41.179Z,0.63
2022-12-01T08:56:44.799Z,0.72
2022-12-01T09:01:47.304Z,0.57
2022-12-01T09:06:58.317Z,0.52
2022-12-01T09:12:00.166Z,0.54
2022-12-01T09:17:01.974Z,0.56
2022-12-01T09:22:06.109Z,0.66
2022-12-01T09:27:10.855Z,0.67
2022-12-01T09:32:13.026Z,0.73
2022-12-01T09:37:16.234Z,0.67
2022-12-01T09:42:18.768Z,0.66
2022-12-01T09:47:26.248Z,0.72
2022-12-01T09:52:34.572Z,0.91
2022-12-01T09:57:38.668Z,0.92
2022-12-01T10:02:46.362Z,0.76
2022-12-01T10:07:54.983Z,1.04
2022-12-01T10:12:57.991Z,0.92
2022-12-01T10:18:21.300Z,1.01
2022-12-01T10:23:51.771Z,1.08
2022-12-01T10:29:05.471Z,1.15
2022-12-01T10:34:13.246Z,1.07
2022-12-01T10:39:21.138Z,1.00
2022-12-01T10:44:24.208Z,0.91
2022-12-01T10:49:36.327Z,1.05
2022-12-01T10:54:41.470Z,1.15
2022-12-01T11:05:52.533Z,1.19
2022-12-01T11:10:56.940Z,1.08
2022-12-01T11:16:00.903Z,1.08
2022-12-01T11:21:12.685Z,1.04
2022-12-01T11:26:19.863Z,1.14
2022-12-01T11:31:27.356Z,1.33
2022-12-01T11:36:37.126Z,1.22
2022-12-01T11:41:41.851Z,1.27
2022-12-01T11:46:50.327Z,1.30
2022-12-01T11:52:16.612Z,1.36
2022-12-01T11:57:33.726Z,1.20
2022-12-01T12:02:43.057Z,1.16
2022-12-01T12:07:57.499Z,1.19
2022-12-01T12:13:24.918Z,1.19
2022-12-01T12:18:42.591Z,1.21
2022-12-01T12:24:12.284Z,1.24
2022-12-01T12:29:28.724Z,1.18
2022-12-01T12:34:43.997Z,1.32
2022-12-01T12:40:09.966Z,1.28
2022-12-01T12:45:23.749Z,1.32
2022-12-01T12:50:35.413Z,1.26
2022-12-01T12:55:45.952Z,1.13
2022-12-01T13:00:56.144Z,1.11
2022-12-01T13:06:02.857Z,1.00
2022-12-01T13:11:14.761Z,1.16
2022-12-01T13:16:23.288Z,1.13
2022-12-01T13:21:26.047Z,0.95
2022-12-01T13:26:28.693Z,1.11
2022-12-01T13:31:42.745Z,1.05
2022-12-01T13:36:49.876Z,1.10
2022-12-01T13:41:59.089Z,1.13
2022-12-01T13:47:05.674Z,1.08
2022-12-01T13:52:29.303Z,1.10
2022-12-01T13:57:33.857Z,1.05
2022-12-01T14:02:37.578Z,1.14
2022-12-01T14:07:40.715Z,1.04
2022-12-01T14:12:46.013Z,1.09
2022-12-01T14:17:59.814Z,1.01
2022-12-01T14:23:24.933Z,1.05
2022-12-01T14:29:19.157Z,1.00
2022-12-01T14:34:25.105Z,0.92
2022-12-01T14:39:31.200Z,0.84
2022-12-01T14:44:38.275Z,0.81
2022-12-01T14:49:48.821Z,0.71
2022-12-01T14:54:53.458Z,0.66
2022-12-01T15:00:04.773Z,0.67
2022-12-01T15:05:11.350Z,0.53
2022-12-01T15:10:18.662Z,0.54
2022-12-01T15:15:24.345Z,0.55
2022-12-01T15:20:31.597Z,0.54
2022-12-01T15:25:34.536Z,0.51
2022-12-01T15:30:36.807Z,0.52
2022-12-01T15:35:41.022Z,0.60
2022-12-01T15:41:13.343Z,0.61
2022-12-01T15:46:13.270Z,0.60
2022-12-01T15:51:20.173Z,0.48
2022-12-01T15:56:27.212Z,0.52
2022-12-01T16:01:31.310Z,0.52
2022-12-01T16:06:36.948Z,0.50
2022-12-01T16:11:39.082Z,0.50
2022-12-01T16:16:44.253Z,0.47
2022-12-01T16:21:49.560Z,0.43
2022-12-01T16:26:54.534Z,0.42
2022-12-01T16:32:19.264Z,0.44
2022-12-01T16:37:23.420Z,0.48
2022-12-01T16:42:25.809Z,0.58
2022-12-01T16:47:32.493Z,0.38
2022-12-01T16:52:44.343Z,0.38
2022-12-01T16:57:47.661Z,0.40
2022-12-01T17:02:49.803Z,0.41
2022-12-01T17:07:53.817Z,0.43
2022-12-01T17:12:56.185Z,0.43
2022-12-01T17:17:58.381Z,0.44
2022-12-01T17:23:01.898Z,0.45
2022-12-01T17:28:04.472Z,0.48
2022-12-01T17:33:06.474Z,0.39
2022-12-01T17:38:12.289Z,0.46
2022-12-01T17:43:14.860Z,0.38
2022-12-01T17:48:17.315Z,0.42
2022-12-01T17:53:21.400Z,0.44
2022-12-01T17:58:24.192Z,0.37
2022-12-01T18:03:26.467Z,0.42
2022-12-01T18:08:31.728Z,0.36
2022-12-01T18:13:35.684Z,0.41
2022-12-01T18:18:38.611Z,0.42
2022-12-01T18:23:42.437Z,0.37
2022-12-01T18:28:44.884Z,0.43
2022-12-01T18:33:47.146Z,0.39
2022-12-01T18:38:51.324Z,0.43
2022-12-01T18:43:54.092Z,0.36
2022-12-01T18:48:57.494Z,0.44
2022-12-01T18:54:03.071Z,0.38
2022-12-01T18:59:07.283Z,0.44
2022-12-01T19:04:09.616Z,0.41
2022-12-01T19:09:15.051Z,0.37
2022-12-01T19:14:19.019Z,0.39
2022-12-01T19:19:21.311Z,0.45
2022-12-01T19:24:25.003Z,0.48
2022-12-01T19:29:27.216Z,0.48
2022-12-01T19:34:29.334Z,0.52
2022-12-01T19:39:32.813Z,0.54
2022-12-01T19:44:35.172Z,0.51
2022-12-01T19:49:37.478Z,0.50
2022-12-01T19:54:41.505Z,0.52
2022-12-01T19:59:44.040Z,0.50
2022-12-01T20:04:46.944Z,0.48
2022-12-01T20:09:50.863Z,0.56
2022-12-01T20:14:53.386Z,0.50
2022-12-01T20:19:55.659Z,0.60
2022-12-01T20:25:00.055Z,0.58
2022-12-01T20:30:02.523Z,0.52
2022-12-01T20:35:06.279Z,0.44
2022-12-01T20:40:10.924Z,0.49
2022-12-01T20:45:12.927Z,0.53
2022-12-01T20:50:14.754Z,0.56
2022-12-01T20:55:18.506Z,0.64
2022-12-01T21:00:20.885Z,0.52
2022-12-01T21:05:23.935Z,0.53
2022-12-01T21:10:27.562Z,0.50
2022-12-01T21:15:31.659Z,0.65
2022-12-01T21:20:37.097Z,0.54
2022-12-01T21:25:41.369Z,0.58
2022-12-01T21:30:44.060Z,0.59
2022-12-01T21:35:46.446Z,0.52
2022-12-01T21:40:49.798Z,0.54
2022-12-01T21:45:56.655Z,0.56
2022-12-01T21:51:02.129Z,0.51
2022-12-01T21:56:06.074Z,0.65
2022-12-01T22:01:16.859Z,0.54
2022-12-01T22:06:31.583Z,0.51
2022-12-01T22:11:35.660Z,0.51
2022-12-01T22:16:41.757Z,0.46
2022-12-01T22:21:45.605Z,0.61
2022-12-01T22:26:51.824Z,0.69
2022-12-01T22:32:16.392Z,0.55
2022-12-01T22:37:21.578Z,0.61
2022-12-01T22:42:31.571Z,0.58
2022-12-01T22:47:34.620Z,0.66
2022-12-01T22:52:36.333Z,0.74
2022-12-01T22:57:39.489Z,0.72
2022-12-01T23:02:41.638Z,0.74
2022-12-01T23:07:44.045Z,0.72
2022-12-01T23:12:48.730Z,0.64
2022-12-01T23:17:52.095Z,0.69
2022-12-01T23:22:54.963Z,0.62
2022-12-01T23:28:02.569Z,0.68
2022-12-01T23:33:18.835Z,0.65
2022-12-01T23:38:22.954Z,0.71
2022-12-01T23:43:29.586Z,0.65
2022-12-01T23:48:36.244Z,0.65
2022-12-01T23:53:39.191Z,0.73
2022-12-01T23:58:43.468Z,0.68
